sensor_id;sensor_type;location;lat;lon;timestamp;pressure;altitude;pressure_sealevel;temperature
13497;BMP180;6820;49.374;8.452;2023-05-02T00:00:03;100664.53;;;20.69
13497;BMP180;6820;49.374;8.452;2023-05-02T00:04:05;100664.47;;;20.68
13497;BMP180;6820;49.374;8.452;2023-05-02T00:08:07;100658.31;;;20.61
13497;BMP180;6820;49.374;8.452;2023-05-02T00:12:09;100664.06;;;20.53
13497;BMP180;6820;49.374;8.452;2023-05-02T00:16:10;100660.06;;;20.32
13497;BMP180;6820;49.374;8.452;2023-05-02T00:20:12;100660.34;;;20.12
13497;BMP180;6820;49.374;8.452;2023-05-02T00:24:16;100670.41;;;20.03
13497;BMP180;6820;49.374;8.452;2023-05-02T00:28:17;100666.81;;;19.98
13497;BMP180;6820;49.374;8.452;2023-05-02T00:32:19;100678.81;;;19.97
13497;BMP180;6820;49.374;8.452;2023-05-02T00:36:21;100671.91;;;19.96
13497;BMP180;6820;49.374;8.452;2023-05-02T00:40:23;100675.31;;;19.94
13497;BMP180;6820;49.374;8.452;2023-05-02T00:44:24;100681.25;;;19.91
13497;BMP180;6820;49.374;8.452;2023-05-02T00:48:26;100679.28;;;19.83
13497;BMP180;6820;49.374;8.452;2023-05-02T00:52:28;100679.84;;;19.75
13497;BMP180;6820;49.374;8.452;2023-05-02T00:56:30;100674.78;;;19.76
13497;BMP180;6820;49.374;8.452;2023-05-02T01:09:24;100681.66;;;19.77
13497;BMP180;6820;49.374;8.452;2023-05-02T01:13:31;100685.00;;;19.75
13497;BMP180;6820;49.374;8.452;2023-05-02T01:17:34;100691.03;;;19.75
13497;BMP180;6820;49.374;8.452;2023-05-02T01:21:38;100690.94;;;19.74
13497;BMP180;6820;49.374;8.452;2023-05-02T01:27:17;100694.31;;;19.71
13497;BMP180;6820;49.374;8.452;2023-05-02T01:30:47;100703.56;;;19.66
13497;BMP180;6820;49.374;8.452;2023-05-02T01:34:52;100700.91;;;19.63
13497;BMP180;6820;49.374;8.452;2023-05-02T01:38:58;100705.13;;;19.61
13497;BMP180;6820;49.374;8.452;2023-05-02T01:43:02;100710.97;;;19.56
13497;BMP180;6820;49.374;8.452;2023-05-02T01:47:07;100709.09;;;19.51
13497;BMP180;6820;49.374;8.452;2023-05-02T01:51:10;100716.69;;;19.48
13497;BMP180;6820;49.374;8.452;2023-05-02T01:55:13;100724.41;;;19.48
13497;BMP180;6820;49.374;8.452;2023-05-02T01:59:18;100733.69;;;19.43
13497;BMP180;6820;49.374;8.452;2023-05-02T02:03:22;100741.19;;;19.37
13497;BMP180;6820;49.374;8.452;2023-05-02T02:07:27;100744.41;;;19.30
13497;BMP180;6820;49.374;8.452;2023-05-02T02:11:34;100745.19;;;19.27
13497;BMP180;6820;49.374;8.452;2023-05-02T02:15:37;100764.06;;;19.28
13497;BMP180;6820;49.374;8.452;2023-05-02T02:19:41;100769.09;;;19.25
13497;BMP180;6820;49.374;8.452;2023-05-02T02:23:46;100769.81;;;19.21
13497;BMP180;6820;49.374;8.452;2023-05-02T02:27:49;100778.28;;;19.19
13497;BMP180;6820;49.374;8.452;2023-05-02T02:31:51;100759.25;;;19.12
13497;BMP180;6820;49.374;8.452;2023-05-02T02:35:57;100782.47;;;19.15
13497;BMP180;6820;49.374;8.452;2023-05-02T02:44:40;100784.09;;;19.13
13497;BMP180;6820;49.374;8.452;2023-05-02T02:48:52;100795.13;;;19.11
13497;BMP180;6820;49.374;8.452;2023-05-02T02:53:01;100795.00;;;19.06
13497;BMP180;6820;49.374;8.452;2023-05-02T02:57:20;100791.34;;;19.00
13497;BMP180;6820;49.374;8.452;2023-05-02T03:01:26;100792.00;;;18.94
13497;BMP180;6820;49.374;8.452;2023-05-02T03:05:28;100789.22;;;18.89
13497;BMP180;6820;49.374;8.452;2023-05-02T03:09:45;100798.44;;;18.84
13497;BMP180;6820;49.374;8.452;2023-05-02T03:13:52;100811.16;;;18.79
13497;BMP180;6820;49.374;8.452;2023-05-02T03:17:56;100818.69;;;18.75
13497;BMP180;6820;49.374;8.452;2023-05-02T03:21:58;100811.63;;;18.69
13497;BMP180;6820;49.374;8.452;2023-05-02T03:26:00;100822.66;;;18.67
13497;BMP180;6820;49.374;8.452;2023-05-02T03:30:03;100826.66;;;18.59
13497;BMP180;6820;49.374;8.452;2023-05-02T03:34:06;100827.31;;;18.54
13497;BMP180;6820;49.374;8.452;2023-05-02T03:38:09;100842.63;;;18.52
13497;BMP180;6820;49.374;8.452;2023-05-02T03:42:11;100845.84;;;18.47
13497;BMP180;6820;49.374;8.452;2023-05-02T03:46:13;100844.13;;;18.46
13497;BMP180;6820;49.374;8.452;2023-05-02T03:50:18;100849.91;;;18.40
13497;BMP180;6820;49.374;8.452;2023-05-02T03:54:22;100852.47;;;18.40
13497;BMP180;6820;49.374;8.452;2023-05-02T03:58:24;100859.31;;;18.40
13497;BMP180;6820;49.374;8.452;2023-05-02T04:02:28;100862.66;;;18.39
13497;BMP180;6820;49.374;8.452;2023-05-02T04:06:31;100866.06;;;18.38
13497;BMP180;6820;49.374;8.452;2023-05-02T04:10:37;100874.50;;;18.35
13497;BMP180;6820;49.374;8.452;2023-05-02T04:14:42;100882.28;;;18.37
13497;BMP180;6820;49.374;8.452;2023-05-02T04:18:44;100892.56;;;18.37
13497;BMP180;6820;49.374;8.452;2023-05-02T04:22:46;100896.81;;;18.36
13497;BMP180;6820;49.374;8.452;2023-05-02T04:26:50;100899.38;;;18.36
13497;BMP180;6820;49.374;8.452;2023-05-02T04:30:53;100907.88;;;18.35
13497;BMP180;6820;49.374;8.452;2023-05-02T04:34:57;100920.66;;;18.34
13497;BMP180;6820;49.374;8.452;2023-05-02T04:38:59;100916.34;;;18.33
13497;BMP180;6820;49.374;8.452;2023-05-02T04:43:05;100925.91;;;18.37
13497;BMP180;6820;49.374;8.452;2023-05-02T04:47:13;100932.25;;;18.46
13497;BMP180;6820;49.374;8.452;2023-05-02T04:51:15;100940.81;;;18.68
13497;BMP180;6820;49.374;8.452;2023-05-02T04:55:20;100940.75;;;18.89
13497;BMP180;6820;49.374;8.452;2023-05-02T04:59:22;100941.34;;;19.03
13497;BMP180;6820;49.374;8.452;2023-05-02T05:03:23;100942.34;;;19.08
13497;BMP180;6820;49.374;8.452;2023-05-02T05:07:26;100947.56;;;19.10
13497;BMP180;6820;49.374;8.452;2023-05-02T05:11:28;100959.75;;;19.15
13497;BMP180;6820;49.374;8.452;2023-05-02T05:15:31;100968.69;;;19.24
13497;BMP180;6820;49.374;8.452;2023-05-02T05:19:35;100965.75;;;19.39
13497;BMP180;6820;49.374;8.452;2023-05-02T05:23:37;100967.06;;;19.51
13497;BMP180;6820;49.374;8.452;2023-05-02T05:27:41;100976.22;;;19.68
13497;BMP180;6820;49.374;8.452;2023-05-02T05:31:44;100983.88;;;19.66
13497;BMP180;6820;49.374;8.452;2023-05-02T05:35:49;100989.47;;;19.55
13497;BMP180;6820;49.374;8.452;2023-05-02T05:39:50;100993.28;;;19.41
13497;BMP180;6820;49.374;8.452;2023-05-02T05:43:52;100994.91;;;19.39
13497;BMP180;6820;49.374;8.452;2023-05-02T05:47:54;101007.47;;;19.55
13497;BMP180;6820;49.374;8.452;2023-05-02T05:51:59;101015.22;;;19.78
13497;BMP180;6820;49.374;8.452;2023-05-02T05:56:11;101000.53;;;20.00
13497;BMP180;6820;49.374;8.452;2023-05-02T06:00:19;101006.19;;;20.15
13497;BMP180;6820;49.374;8.452;2023-05-02T06:04:24;101013.09;;;20.17
13497;BMP180;6820;49.374;8.452;2023-05-02T06:08:27;101019.69;;;20.10
13497;BMP180;6820;49.374;8.452;2023-05-02T06:12:29;101019.19;;;20.19
13497;BMP180;6820;49.374;8.452;2023-05-02T06:16:31;101024.25;;;20.16
13497;BMP180;6820;49.374;8.452;2023-05-02T06:20:35;101035.56;;;20.21
13497;BMP180;6820;49.374;8.452;2023-05-02T06:24:37;101043.00;;;20.13
13497;BMP180;6820;49.374;8.452;2023-05-02T06:28:38;101055.22;;;19.95
13497;BMP180;6820;49.374;8.452;2023-05-02T06:32:40;101068.28;;;20.01
13497;BMP180;6820;49.374;8.452;2023-05-02T06:36:44;101057.91;;;20.22
13497;BMP180;6820;49.374;8.452;2023-05-02T06:40:46;101064.06;;;20.27
13497;BMP180;6820;49.374;8.452;2023-05-02T06:44:49;101083.97;;;20.31
13497;BMP180;6820;49.374;8.452;2023-05-02T06:48:51;101082.09;;;20.27
13497;BMP180;6820;49.374;8.452;2023-05-02T06:52:53;101088.19;;;20.29
13497;BMP180;6820;49.374;8.452;2023-05-02T06:56:54;101084.25;;;20.40
13497;BMP180;6820;49.374;8.452;2023-05-02T07:00:56;101080.22;;;20.48
13497;BMP180;6820;49.374;8.452;2023-05-02T07:04:58;101079.34;;;20.72
13497;BMP180;6820;49.374;8.452;2023-05-02T07:08:59;101080.38;;;21.05
13497;BMP180;6820;49.374;8.452;2023-05-02T07:13:01;101084.53;;;21.29
13497;BMP180;6820;49.374;8.452;2023-05-02T07:17:03;101084.94;;;21.40
13497;BMP180;6820;49.374;8.452;2023-05-02T07:21:04;101080.91;;;21.50
13497;BMP180;6820;49.374;8.452;2023-05-02T07:25:06;101091.06;;;21.44
13497;BMP180;6820;49.374;8.452;2023-05-02T07:29:08;101082.91;;;21.32
13497;BMP180;6820;49.374;8.452;2023-05-02T07:33:10;101085.50;;;21.32
13497;BMP180;6820;49.374;8.452;2023-05-02T07:37:11;101075.78;;;21.22
13497;BMP180;6820;49.374;8.452;2023-05-02T07:41:13;101078.81;;;21.37
13497;BMP180;6820;49.374;8.452;2023-05-02T07:45:15;101075.28;;;21.34
13497;BMP180;6820;49.374;8.452;2023-05-02T07:49:18;101076.50;;;21.46
13497;BMP180;6820;49.374;8.452;2023-05-02T07:53:19;101074.63;;;21.71
13497;BMP180;6820;49.374;8.452;2023-05-02T07:57:21;101077.31;;;22.06
13497;BMP180;6820;49.374;8.452;2023-05-02T08:01:23;101082.38;;;22.33
13497;BMP180;6820;49.374;8.452;2023-05-02T08:05:25;101084.44;;;22.46
13497;BMP180;6820;49.374;8.452;2023-05-02T08:09:28;101095.09;;;22.60
13497;BMP180;6820;49.374;8.452;2023-05-02T08:13:29;101100.72;;;22.79
13497;BMP180;6820;49.374;8.452;2023-05-02T08:17:31;101101.44;;;23.07
13497;BMP180;6820;49.374;8.452;2023-05-02T08:21:33;101093.72;;;23.46
13497;BMP180;6820;49.374;8.452;2023-05-02T08:25:35;101094.53;;;23.45
13497;BMP180;6820;49.374;8.452;2023-05-02T08:29:37;101102.16;;;23.39
13497;BMP180;6820;49.374;8.452;2023-05-02T08:33:38;101112.53;;;23.39
13497;BMP180;6820;49.374;8.452;2023-05-02T08:37:40;101112.13;;;23.22
13497;BMP180;6820;49.374;8.452;2023-05-02T08:41:42;101124.59;;;23.02
13497;BMP180;6820;49.374;8.452;2023-05-02T08:45:45;101121.94;;;22.98
13497;BMP180;6820;49.374;8.452;2023-05-02T08:49:47;101120.72;;;22.84
13497;BMP180;6820;49.374;8.452;2023-05-02T08:53:51;101126.00;;;22.89
13497;BMP180;6820;49.374;8.452;2023-05-02T08:57:56;101125.41;;;23.00
13497;BMP180;6820;49.374;8.452;2023-05-02T09:02:06;101135.25;;;23.14
13497;BMP180;6820;49.374;8.452;2023-05-02T09:06:18;101140.72;;;22.91
13497;BMP180;6820;49.374;8.452;2023-05-02T09:10:21;101148.28;;;22.84
13497;BMP180;6820;49.374;8.452;2023-05-02T09:14:25;101143.75;;;23.10
13497;BMP180;6820;49.374;8.452;2023-05-02T09:18:28;101156.81;;;23.51
13497;BMP180;6820;49.374;8.452;2023-05-02T09:22:30;101151.78;;;23.58
13497;BMP180;6820;49.374;8.452;2023-05-02T09:26:32;101153.78;;;23.70
13497;BMP180;6820;49.374;8.452;2023-05-02T09:30:34;101166.91;;;23.79
13497;BMP180;6820;49.374;8.452;2023-05-02T09:34:36;101162.06;;;23.55
13497;BMP180;6820;49.374;8.452;2023-05-02T09:38:41;101168.47;;;23.71
13497;BMP180;6820;49.374;8.452;2023-05-02T09:42:43;101160.16;;;23.86
13497;BMP180;6820;49.374;8.452;2023-05-02T09:46:49;101172.47;;;23.96
13497;BMP180;6820;49.374;8.452;2023-05-02T09:50:51;101163.84;;;23.97
13497;BMP180;6820;49.374;8.452;2023-05-02T09:54:53;101168.50;;;23.74
13497;BMP180;6820;49.374;8.452;2023-05-02T09:59:26;101174.94;;;23.51
13497;BMP180;6820;49.374;8.452;2023-05-02T10:03:28;101187.59;;;23.41
13497;BMP180;6820;49.374;8.452;2023-05-02T10:07:32;101183.19;;;23.37
13497;BMP180;6820;49.374;8.452;2023-05-02T10:11:33;101188.91;;;23.59
13497;BMP180;6820;49.374;8.452;2023-05-02T10:15:41;101197.44;;;23.55
13497;BMP180;6820;49.374;8.452;2023-05-02T10:23:54;101207.72;;;22.84
13497;BMP180;6820;49.374;8.452;2023-05-02T10:27:56;101203.47;;;22.54
13497;BMP180;6820;49.374;8.452;2023-05-02T10:32:02;101204.06;;;22.44
13497;BMP180;6820;49.374;8.452;2023-05-02T10:36:07;101210.16;;;22.46
13497;BMP180;6820;49.374;8.452;2023-05-02T10:40:10;101213.69;;;22.81
13497;BMP180;6820;49.374;8.452;2023-05-02T10:44:13;101196.59;;;23.20
13497;BMP180;6820;49.374;8.452;2023-05-02T10:48:15;101193.31;;;23.28
13497;BMP180;6820;49.374;8.452;2023-05-02T10:52:37;101193.16;;;23.21
13497;BMP180;6820;49.374;8.452;2023-05-02T11:05:31;101186.09;;;23.50
13497;BMP180;6820;49.374;8.452;2023-05-02T11:09:37;101179.44;;;23.59
13497;BMP180;6820;49.374;8.452;2023-05-02T11:13:48;101178.34;;;23.89
13497;BMP180;6820;49.374;8.452;2023-05-02T11:18:23;101175.72;;;24.30
13497;BMP180;6820;49.374;8.452;2023-05-02T11:26:28;101176.78;;;24.40
13497;BMP180;6820;49.374;8.452;2023-05-02T11:30:40;101172.56;;;24.46
13497;BMP180;6820;49.374;8.452;2023-05-02T11:34:44;101171.06;;;24.14
13497;BMP180;6820;49.374;8.452;2023-05-02T11:38:45;101171.63;;;23.99
13497;BMP180;6820;49.374;8.452;2023-05-02T11:42:47;101166.63;;;24.51
13497;BMP180;6820;49.374;8.452;2023-05-02T11:46:49;101157.53;;;24.74
13497;BMP180;6820;49.374;8.452;2023-05-02T11:50:52;101157.78;;;24.89
13497;BMP180;6820;49.374;8.452;2023-05-02T11:54:55;101153.75;;;25.06
13497;BMP180;6820;49.374;8.452;2023-05-02T11:58:58;101152.53;;;25.40
13497;BMP180;6820;49.374;8.452;2023-05-02T12:03:00;101148.56;;;25.63
13497;BMP180;6820;49.374;8.452;2023-05-02T12:07:02;101140.84;;;25.69
13497;BMP180;6820;49.374;8.452;2023-05-02T12:11:04;101152.13;;;25.70
13497;BMP180;6820;49.374;8.452;2023-05-02T12:15:08;101153.03;;;25.15
13497;BMP180;6820;49.374;8.452;2023-05-02T12:19:11;101149.59;;;25.18
13497;BMP180;6820;49.374;8.452;2023-05-02T12:23:13;101153.50;;;25.46
13497;BMP180;6820;49.374;8.452;2023-05-02T12:27:15;101164.06;;;25.57
13497;BMP180;6820;49.374;8.452;2023-05-02T12:31:17;101159.44;;;26.04
13497;BMP180;6820;49.374;8.452;2023-05-02T12:35:24;101154.59;;;26.32
13497;BMP180;6820;49.374;8.452;2023-05-02T12:39:37;101148.16;;;26.83
13497;BMP180;6820;49.374;8.452;2023-05-02T12:43:45;101154.69;;;27.44
13497;BMP180;6820;49.374;8.452;2023-05-02T12:47:46;101151.47;;;27.93
13497;BMP180;6820;49.374;8.452;2023-05-02T12:51:52;101144.53;;;27.94
13497;BMP180;6820;49.374;8.452;2023-05-02T12:56:02;101145.28;;;27.74
13497;BMP180;6820;49.374;8.452;2023-05-02T13:00:05;101138.28;;;27.62
13497;BMP180;6820;49.374;8.452;2023-05-02T13:04:07;101147.84;;;27.63
13497;BMP180;6820;49.374;8.452;2023-05-02T13:08:09;101138.28;;;27.54
13497;BMP180;6820;49.374;8.452;2023-05-02T13:12:10;101150.41;;;27.52
13497;BMP180;6820;49.374;8.452;2023-05-02T13:16:12;101151.25;;;27.51
13497;BMP180;6820;49.374;8.452;2023-05-02T13:20:14;101149.59;;;27.66
13497;BMP180;6820;49.374;8.452;2023-05-02T13:24:16;101145.84;;;27.20
13497;BMP180;6820;49.374;8.452;2023-05-02T13:28:18;101130.16;;;27.12
13497;BMP180;6820;49.374;8.452;2023-05-02T13:32:19;101146.00;;;27.40
13497;BMP180;6820;49.374;8.452;2023-05-02T13:36:22;101136.50;;;27.53
13497;BMP180;6820;49.374;8.452;2023-05-02T13:40:24;101130.47;;;27.54
13497;BMP180;6820;49.374;8.452;2023-05-02T13:44:26;101137.28;;;27.35
13497;BMP180;6820;49.374;8.452;2023-05-02T13:48:27;101133.84;;;27.38
13497;BMP180;6820;49.374;8.452;2023-05-02T13:52:30;101135.59;;;27.48
13497;BMP180;6820;49.374;8.452;2023-05-02T13:56:32;101136.38;;;27.30
13497;BMP180;6820;49.374;8.452;2023-05-02T14:00:33;101136.50;;;27.50
13497;BMP180;6820;49.374;8.452;2023-05-02T14:04:35;101134.03;;;27.84
13497;BMP180;6820;49.374;8.452;2023-05-02T14:08:36;101130.59;;;27.86
13497;BMP180;6820;49.374;8.452;2023-05-02T14:12:38;101135.88;;;28.05
13497;BMP180;6820;49.374;8.452;2023-05-02T14:16:40;101125.56;;;28.57
13497;BMP180;6820;49.374;8.452;2023-05-02T14:20:42;101118.56;;;28.97
13497;BMP180;6820;49.374;8.452;2023-05-02T14:24:43;101132.50;;;29.20
13497;BMP180;6820;49.374;8.452;2023-05-02T14:28:45;101120.31;;;28.86
13497;BMP180;6820;49.374;8.452;2023-05-02T14:32:47;101129.91;;;28.80
13497;BMP180;6820;49.374;8.452;2023-05-02T14:36:49;101113.28;;;29.37
13497;BMP180;6820;49.374;8.452;2023-05-02T14:40:51;101117.53;;;29.78
13497;BMP180;6820;49.374;8.452;2023-05-02T14:44:52;101113.88;;;30.08
13497;BMP180;6820;49.374;8.452;2023-05-02T14:48:54;101121.06;;;29.53
13497;BMP180;6820;49.374;8.452;2023-05-02T14:52:55;101131.66;;;28.87
13497;BMP180;6820;49.374;8.452;2023-05-02T14:56:57;101134.16;;;28.19
13497;BMP180;6820;49.374;8.452;2023-05-02T15:01:00;101130.69;;;28.18
13497;BMP180;6820;49.374;8.452;2023-05-02T15:05:02;101140.09;;;27.80
13497;BMP180;6820;49.374;8.452;2023-05-02T15:09:05;101137.28;;;27.34
13497;BMP180;6820;49.374;8.452;2023-05-02T15:13:07;101143.41;;;27.40
13497;BMP180;6820;49.374;8.452;2023-05-02T15:17:09;101143.47;;;27.54
13497;BMP180;6820;49.374;8.452;2023-05-02T15:21:11;101142.84;;;28.02
13497;BMP180;6820;49.374;8.452;2023-05-02T15:25:13;101143.72;;;28.20
13497;BMP180;6820;49.374;8.452;2023-05-02T15:29:14;101148.06;;;28.14
13497;BMP180;6820;49.374;8.452;2023-05-02T15:33:16;101153.28;;;28.17
13497;BMP180;6820;49.374;8.452;2023-05-02T15:37:18;101153.28;;;28.08
13497;BMP180;6820;49.374;8.452;2023-05-02T15:41:19;101142.00;;;28.19
13497;BMP180;6820;49.374;8.452;2023-05-02T15:45:21;101144.63;;;28.23
13497;BMP180;6820;49.374;8.452;2023-05-02T15:49:23;101148.09;;;28.18
13497;BMP180;6820;49.374;8.452;2023-05-02T15:53:25;101148.94;;;28.10
13497;BMP180;6820;49.374;8.452;2023-05-02T15:57:26;101151.56;;;28.13
13497;BMP180;6820;49.374;8.452;2023-05-02T16:01:28;101148.97;;;28.27
13497;BMP180;6820;49.374;8.452;2023-05-02T16:05:30;101149.00;;;28.39
13497;BMP180;6820;49.374;8.452;2023-05-02T16:09:32;101155.13;;;28.53
13497;BMP180;6820;49.374;8.452;2023-05-02T16:13:33;101149.91;;;28.53
13497;BMP180;6820;49.374;8.452;2023-05-02T16:17:35;101151.66;;;28.55
13497;BMP180;6820;49.374;8.452;2023-05-02T16:21:41;101150.78;;;28.56
13497;BMP180;6820;49.374;8.452;2023-05-02T16:25:42;101149.91;;;28.56
13497;BMP180;6820;49.374;8.452;2023-05-02T16:29:44;101147.31;;;28.63
13497;BMP180;6820;49.374;8.452;2023-05-02T16:33:48;101151.63;;;28.48
13497;BMP180;6820;49.374;8.452;2023-05-02T16:37:51;101158.50;;;28.11
13497;BMP180;6820;49.374;8.452;2023-05-02T16:41:52;101161.09;;;28.17
13497;BMP180;6820;49.374;8.452;2023-05-02T16:45:58;101161.94;;;28.04
13497;BMP180;6820;49.374;8.452;2023-05-02T16:50:00;101157.56;;;27.95
13497;BMP180;6820;49.374;8.452;2023-05-02T16:54:03;101157.44;;;27.75
13497;BMP180;6820;49.374;8.452;2023-05-02T16:58:04;101154.75;;;27.53
13497;BMP180;6820;49.374;8.452;2023-05-02T17:02:07;101160.75;;;27.38
13497;BMP180;6820;49.374;8.452;2023-05-02T17:06:08;101164.97;;;27.29
13497;BMP180;6820;49.374;8.452;2023-05-02T17:10:10;101172.75;;;27.22
13497;BMP180;6820;49.374;8.452;2023-05-02T17:14:12;101172.69;;;27.11
13497;BMP180;6820;49.374;8.452;2023-05-02T17:18:14;101171.75;;;27.03
13497;BMP180;6820;49.374;8.452;2023-05-02T17:22:16;101177.66;;;26.82
13497;BMP180;6820;49.374;8.452;2023-05-02T17:26:19;101170.47;;;26.60
13497;BMP180;6820;49.374;8.452;2023-05-02T17:30:21;101183.16;;;26.29
13497;BMP180;6820;49.374;8.452;2023-05-02T17:34:24;101190.56;;;25.97
13497;BMP180;6820;49.374;8.452;2023-05-02T17:38:28;101186.56;;;25.56
13497;BMP180;6820;49.374;8.452;2023-05-02T17:42:30;101204.38;;;25.36
13497;BMP180;6820;49.374;8.452;2023-05-02T17:46:32;101200.38;;;25.03
13497;BMP180;6820;49.374;8.452;2023-05-02T17:50:37;101220.63;;;24.76
13497;BMP180;6820;49.374;8.452;2023-05-02T17:54:39;101223.69;;;24.54
13497;BMP180;6820;49.374;8.452;2023-05-02T17:58:40;101222.63;;;24.42
13497;BMP180;6820;49.374;8.452;2023-05-02T18:02:42;101230.19;;;24.32
13497;BMP180;6820;49.374;8.452;2023-05-02T18:06:44;101228.00;;;24.10
13497;BMP180;6820;49.374;8.452;2023-05-02T18:10:46;101232.88;;;23.97
13497;BMP180;6820;49.374;8.452;2023-05-02T18:14:48;101230.88;;;23.85
13497;BMP180;6820;49.374;8.452;2023-05-02T18:18:49;101229.03;;;23.79
13497;BMP180;6820;49.374;8.452;2023-05-02T18:22:51;101246.06;;;23.68
13497;BMP180;6820;49.374;8.452;2023-05-02T18:26:53;101258.47;;;23.47
13497;BMP180;6820;49.374;8.452;2023-05-02T18:30:54;101252.94;;;23.32
13497;BMP180;6820;49.374;8.452;2023-05-02T18:34:56;101266.38;;;23.18
13497;BMP180;6820;49.374;8.452;2023-05-02T18:38:58;101269.25;;;22.96
13497;BMP180;6820;49.374;8.452;2023-05-02T18:43:00;101273.22;;;22.83
13497;BMP180;6820;49.374;8.452;2023-05-02T18:47:02;101284.09;;;22.73
13497;BMP180;6820;49.374;8.452;2023-05-02T18:51:03;101296.72;;;22.62
13497;BMP180;6820;49.374;8.452;2023-05-02T18:55:08;101307.78;;;22.57
13497;BMP180;6820;49.374;8.452;2023-05-02T18:59:09;101305.00;;;22.50
13497;BMP180;6820;49.374;8.452;2023-05-02T19:03:12;101325.44;;;22.42
13497;BMP180;6820;49.374;8.452;2023-05-02T19:07:14;101322.41;;;22.28
13497;BMP180;6820;49.374;8.452;2023-05-02T19:11:15;101329.91;;;22.19
13497;BMP180;6820;49.374;8.452;2023-05-02T19:15:17;101339.06;;;22.09
13497;BMP180;6820;49.374;8.452;2023-05-02T19:19:19;101338.75;;;21.99
13497;BMP180;6820;49.374;8.452;2023-05-02T19:23:20;101351.41;;;21.92
13497;BMP180;6820;49.374;8.452;2023-05-02T19:27:22;101358.06;;;21.85
13497;BMP180;6820;49.374;8.452;2023-05-02T19:31:24;101367.44;;;21.82
13497;BMP180;6820;49.374;8.452;2023-05-02T19:35:26;101366.56;;;21.81
13497;BMP180;6820;49.374;8.452;2023-05-02T19:39:28;101374.22;;;21.78
13497;BMP180;6820;49.374;8.452;2023-05-02T19:43:29;101392.03;;;21.71
13497;BMP180;6820;49.374;8.452;2023-05-02T19:47:31;101385.63;;;21.60
13497;BMP180;6820;49.374;8.452;2023-05-02T19:51:33;101400.00;;;21.52
13497;BMP180;6820;49.374;8.452;2023-05-02T19:55:35;101405.63;;;21.41
13497;BMP180;6820;49.374;8.452;2023-05-02T19:59:37;101413.97;;;21.34
13497;BMP180;6820;49.374;8.452;2023-05-02T20:03:38;101426.72;;;21.31
13497;BMP180;6820;49.374;8.452;2023-05-02T20:07:40;101415.38;;;21.26
13497;BMP180;6820;49.374;8.452;2023-05-02T20:11:42;101423.38;;;21.09
13497;BMP180;6820;49.374;8.452;2023-05-02T20:15:43;101433.97;;;20.95
13497;BMP180;6820;49.374;8.452;2023-05-02T20:19:45;101434.59;;;20.88
13497;BMP180;6820;49.374;8.452;2023-05-02T20:23:46;101437.94;;;20.85
13497;BMP180;6820;49.374;8.452;2023-05-02T20:27:51;101436.91;;;20.80
13497;BMP180;6820;49.374;8.452;2023-05-02T20:31:53;101439.84;;;20.68
13497;BMP180;6820;49.374;8.452;2023-05-02T20:35:57;101444.00;;;20.64
13497;BMP180;6820;49.374;8.452;2023-05-02T20:39:58;101444.66;;;20.59
13497;BMP180;6820;49.374;8.452;2023-05-02T20:44:01;101446.28;;;20.57
13497;BMP180;6820;49.374;8.452;2023-05-02T20:48:04;101458.91;;;20.51
13497;BMP180;6820;49.374;8.452;2023-05-02T20:52:06;101449.19;;;20.44
13497;BMP180;6820;49.374;8.452;2023-05-02T20:56:07;101455.28;;;20.46
13497;BMP180;6820;49.374;8.452;2023-05-02T21:00:09;101453.53;;;20.45
13497;BMP180;6820;49.374;8.452;2023-05-02T21:04:11;101460.84;;;20.35
13497;BMP180;6820;49.374;8.452;2023-05-02T21:08:13;101466.50;;;20.26
13497;BMP180;6820;49.374;8.452;2023-05-02T21:12:15;101469.84;;;20.24
13497;BMP180;6820;49.374;8.452;2023-05-02T21:16:18;101467.09;;;20.19
13497;BMP180;6820;49.374;8.452;2023-05-02T21:20:20;101478.88;;;20.14
13497;BMP180;6820;49.374;8.452;2023-05-02T21:24:21;101477.66;;;20.05
13497;BMP180;6820;49.374;8.452;2023-05-02T21:28:23;101491.72;;;19.93
13497;BMP180;6820;49.374;8.452;2023-05-02T21:32:25;101485.44;;;19.86
13497;BMP180;6820;49.374;8.452;2023-05-02T21:36:27;101490.59;;;19.86
13497;BMP180;6820;49.374;8.452;2023-05-02T21:40:28;101489.78;;;19.87
13497;BMP180;6820;49.374;8.452;2023-05-02T21:44:32;101485.38;;;19.85
13497;BMP180;6820;49.374;8.452;2023-05-02T21:48:33;101475.31;;;19.71
13497;BMP180;6820;49.374;8.452;2023-05-02T21:52:35;101489.91;;;19.72
13497;BMP180;6820;49.374;8.452;2023-05-02T21:56:37;101485.47;;;19.68
13497;BMP180;6820;49.374;8.452;2023-05-02T22:00:39;101494.13;;;19.70
13497;BMP180;6820;49.374;8.452;2023-05-02T22:04:41;101492.22;;;19.66
13497;BMP180;6820;49.374;8.452;2023-05-02T22:08:48;101481.69;;;19.60
13497;BMP180;6820;49.374;8.452;2023-05-02T22:12:50;101491.44;;;19.48
13497;BMP180;6820;49.374;8.452;2023-05-02T22:16:51;101487.75;;;19.42
13497;BMP180;6820;49.374;8.452;2023-05-02T22:20:57;101492.81;;;19.40
13497;BMP180;6820;49.374;8.452;2023-05-02T22:24:59;101491.56;;;19.31
13497;BMP180;6820;49.374;8.452;2023-05-02T22:29:03;101496.47;;;19.26
13497;BMP180;6820;49.374;8.452;2023-05-02T22:33:05;101506.50;;;19.21
13497;BMP180;6820;49.374;8.452;2023-05-02T22:37:08;101498.75;;;19.19
13497;BMP180;6820;49.374;8.452;2023-05-02T22:41:09;101492.91;;;19.23
13497;BMP180;6820;49.374;8.452;2023-05-02T22:45:11;101497.31;;;19.25
13497;BMP180;6820;49.374;8.452;2023-05-02T22:49:13;101504.16;;;19.25
13497;BMP180;6820;49.374;8.452;2023-05-02T22:53:16;101507.50;;;19.24
13497;BMP180;6820;49.374;8.452;2023-05-02T22:57:18;101502.25;;;19.21
13497;BMP180;6820;49.374;8.452;2023-05-02T23:01:19;101514.59;;;19.11
13497;BMP180;6820;49.374;8.452;2023-05-02T23:05:21;101513.72;;;18.92
13497;BMP180;6820;49.374;8.452;2023-05-02T23:09:23;101518.06;;;18.75
13497;BMP180;6820;49.374;8.452;2023-05-02T23:13:27;101537.25;;;18.64
13497;BMP180;6820;49.374;8.452;2023-05-02T23:17:29;101522.06;;;18.52
13497;BMP180;6820;49.374;8.452;2023-05-02T23:21:31;101517.06;;;18.55
13497;BMP180;6820;49.374;8.452;2023-05-02T23:25:33;101515.72;;;18.62
13497;BMP180;6820;49.374;8.452;2023-05-02T23:29:36;101524.31;;;18.63
13497;BMP180;6820;49.374;8.452;2023-05-02T23:33:37;101523.28;;;18.60
13497;BMP180;6820;49.374;8.452;2023-05-02T23:37:39;101530.81;;;18.55
13497;BMP180;6820;49.374;8.452;2023-05-02T23:41:41;101528.09;;;18.35
13497;BMP180;6820;49.374;8.452;2023-05-02T23:45:44;101533.44;;;18.22
13497;BMP180;6820;49.374;8.452;2023-05-02T23:49:46;101533.16;;;18.16